createdAt,value
2022-08-07T00:05:10.590Z,100208.44
2022-08-07T00:10:33.573Z,100212.97
2022-08-07T00:16:17.367Z,100225.69
2022-08-07T00:21:56.195Z,100216.94
2022-08-07T00:27:24.410Z,100196.34
2022-08-07T00:33:00.869Z,100234.78
2022-08-07T00:38:31.316Z,100202.47
2022-08-07T00:44:07.113Z,100232.88
2022-08-07T00:50:20.390Z,100239.38
2022-08-07T00:55:25.385Z,100266.22
2022-08-07T01:01:07.875Z,100181.63
2022-08-07T01:06:33.043Z,100266.25
2022-08-07T01:12:30.121Z,100252.41
2022-08-07T01:17:56.193Z,100236.97
2022-08-07T01:23:25.495Z,100190.00
2022-08-07T01:29:10.641Z,100278.03
2022-08-07T01:34:50.700Z,100249.91
2022-08-07T01:40:24.013Z,100254.69
2022-08-07T01:45:54.698Z,100201.91
2022-08-07T01:52:02.833Z,100188.03
2022-08-07T01:58:29.693Z,100157.91
2022-08-07T02:04:02.060Z,100190.06
2022-08-07T02:09:51.604Z,100219.59
2022-08-07T02:15:16.147Z,100206.25
2022-08-07T02:20:42.956Z,100264.47
2022-08-07T02:26:33.016Z,100187.50
2022-08-07T02:31:55.714Z,100168.81
2022-08-07T02:37:23.165Z,100194.25
2022-08-07T02:42:47.388Z,100255.78
2022-08-07T02:48:10.513Z,100253.94
2022-08-07T02:53:46.703Z,100168.88
2022-08-07T02:59:27.439Z,100180.84
2022-08-07T03:04:56.198Z,100197.78
2022-08-07T03:10:23.502Z,100211.56
2022-08-07T03:15:56.591Z,100168.03
2022-08-07T03:21:33.130Z,100178.72
2022-08-07T03:27:03.624Z,100240.22
2022-08-07T03:32:49.032Z,100235.75
2022-08-07T03:38:29.653Z,100218.16
2022-08-07T03:44:02.449Z,100197.94
2022-08-07T03:49:28.555Z,100202.56
2022-08-07T03:55:06.318Z,100254.13
2022-08-07T04:00:36.627Z,100231.41
2022-08-07T04:05:59.986Z,100216.59
2022-08-07T04:12:24.947Z,100241.22
2022-08-07T04:17:29.373Z,100245.88
2022-08-07T04:22:53.748Z,100249.25
2022-08-07T04:28:24.987Z,100234.72
2022-08-07T04:33:54.987Z,100240.28
2022-08-07T04:39:25.775Z,100263.28
2022-08-07T04:44:54.598Z,100268.06
2022-08-07T04:50:52.881Z,100263.66
2022-08-07T04:58:09.808Z,100255.84
2022-08-07T05:02:29.116Z,100210.19
2022-08-07T05:08:01.799Z,100188.06
2022-08-07T05:14:53.106Z,100171.75
2022-08-07T05:19:44.101Z,100192.44
2022-08-07T05:25:25.501Z,100196.31
2022-08-07T05:31:00.982Z,100201.25
2022-08-07T05:36:39.154Z,100228.09
2022-08-07T05:42:13.911Z,100180.84
2022-08-07T05:48:01.331Z,100201.50
2022-08-07T05:54:12.381Z,100177.00
2022-08-07T05:59:19.431Z,100186.84
2022-08-07T06:05:03.664Z,100233.84
2022-08-07T06:10:28.478Z,100196.34
2022-08-07T06:15:51.601Z,100220.09
2022-08-07T06:22:15.203Z,100220.78
2022-08-07T06:27:05.003Z,100217.59
2022-08-07T06:32:29.441Z,100199.06
2022-08-07T06:37:54.813Z,100206.59
2022-08-07T06:43:22.556Z,100205.75
2022-08-07T06:48:59.713Z,100203.00
2022-08-07T06:55:31.199Z,100203.06
2022-08-07T07:00:17.873Z,100147.19
2022-08-07T07:06:04.187Z,100174.56
2022-08-07T07:12:07.622Z,100157.84
2022-08-07T07:17:23.870Z,100142.66
2022-08-07T07:24:09.725Z,100169.66
2022-08-07T07:29:57.248Z,100145.34
2022-08-07T07:34:51.595Z,100157.88
2022-08-07T07:40:20.601Z,100194.53
2022-08-07T07:46:53.464Z,100200.72
2022-08-07T07:51:58.084Z,100165.00
2022-08-07T07:57:52.808Z,100186.63
2022-08-07T08:04:10.573Z,100183.94
2022-08-07T08:09:11.722Z,100166.41
2022-08-07T08:14:44.631Z,100159.88
2022-08-07T08:20:18.714Z,100186.22
2022-08-07T08:26:12.755Z,100181.59
2022-08-07T08:31:58.904Z,100178.00
2022-08-07T08:38:00.325Z,100180.97
2022-08-07T08:43:59.112Z,100166.28
2022-08-07T08:50:04.969Z,100172.94
2022-08-07T08:55:54.955Z,100169.34
2022-08-07T09:01:58.524Z,100163.41
2022-08-07T09:07:46.472Z,100148.69
2022-08-07T09:13:41.887Z,100150.38
2022-08-07T09:19:52.339Z,100139.13
2022-08-07T09:25:37.536Z,100135.91
2022-08-07T09:31:21.657Z,100116.03
2022-08-07T09:37:01.173Z,100074.28
2022-08-07T09:42:35.468Z,100073.81
2022-08-07T09:49:59.577Z,100107.81
2022-08-07T09:54:47.917Z,100096.97
2022-08-07T10:00:14.397Z,100100.66
2022-08-07T10:05:59.226Z,100088.94
2022-08-07T10:12:01.963Z,100091.81
2022-08-07T10:18:00.961Z,100082.78
2022-08-07T10:24:05.121Z,100097.50
2022-08-07T10:29:51.694Z,100081.47
2022-08-07T10:35:20.483Z,100079.53
2022-08-07T10:41:06.700Z,100063.72
2022-08-07T10:46:36.549Z,100049.50
2022-08-07T10:52:14.223Z,100064.56
2022-08-07T10:58:02.168Z,100055.09
2022-08-07T11:03:52.507Z,100036.47
2022-08-07T11:10:07.237Z,100038.00
2022-08-07T11:15:26.385Z,100026.66
2022-08-07T11:21:00.889Z,100029.63
2022-08-07T11:26:28.873Z,100018.56
2022-08-07T11:32:13.876Z,99998.69
2022-08-07T11:38:17.601Z,100036.53
2022-08-07T11:44:10.889Z,100038.88
2022-08-07T11:50:18.518Z,100028.31
2022-08-07T11:56:09.274Z,100034.16
2022-08-07T12:02:30.159Z,99984.22
2022-08-07T12:08:31.825Z,99970.38
2022-08-07T12:14:21.276Z,99985.41
2022-08-07T12:20:10.339Z,99973.69
2022-08-07T12:26:03.480Z,100006.03
2022-08-07T12:32:42.091Z,100082.66
2022-08-07T12:38:17.820Z,100134.31
2022-08-07T12:44:12.888Z,100126.31
2022-08-07T12:50:04.400Z,100151.91
2022-08-07T12:56:02.319Z,100135.28
2022-08-07T13:01:59.453Z,100144.03
2022-08-07T13:08:13.751Z,100164.59
2022-08-07T13:14:02.858Z,100119.75
2022-08-07T13:19:46.312Z,100139.50
2022-08-07T13:25:28.970Z,100178.00
2022-08-07T13:31:12.890Z,100192.13
2022-08-07T13:36:53.908Z,100172.31
2022-08-07T13:42:24.753Z,100170.66
2022-08-07T13:48:07.668Z,100216.28
2022-08-07T13:53:59.542Z,100201.56
2022-08-07T13:59:28.173Z,100218.47
2022-08-07T14:04:55.258Z,100202.78
2022-08-07T14:10:24.878Z,100224.53
2022-08-07T14:16:04.351Z,100206.72
2022-08-07T14:22:03.321Z,100262.59
2022-08-07T14:28:11.084Z,100213.69
2022-08-07T14:33:11.744Z,100217.06
2022-08-07T14:38:50.462Z,100214.28
2022-08-07T14:44:15.649Z,100212.13
2022-08-07T14:49:57.665Z,100227.91
2022-08-07T14:55:34.581Z,100264.28
2022-08-07T15:01:21.957Z,100243.00
2022-08-07T15:06:48.107Z,100235.91
2022-08-07T15:12:26.224Z,100247.31
2022-08-07T15:25:16.381Z,100239.91
2022-08-07T15:30:09.919Z,100248.94
2022-08-07T15:36:02.432Z,100264.63
2022-08-07T15:48:00.162Z,100270.25
2022-08-07T15:52:57.708Z,100251.03
2022-08-07T15:58:59.393Z,100273.03
2022-08-07T16:04:30.400Z,100253.34
2022-08-07T16:10:05.906Z,100250.50
2022-08-07T16:16:48.417Z,100315.22
2022-08-07T16:22:31.519Z,100248.59
2022-08-07T16:27:57.362Z,100313.59
2022-08-07T16:34:03.323Z,100304.03
2022-08-07T16:39:59.068Z,100315.16
2022-08-07T16:46:47.224Z,100312.50
2022-08-07T16:52:01.989Z,100275.66
2022-08-07T16:58:01.974Z,100343.28
2022-08-07T17:03:58.163Z,100320.91
2022-08-07T17:10:08.441Z,100282.13
2022-08-07T17:15:50.534Z,100283.38
2022-08-07T17:21:22.799Z,100272.41
2022-08-07T17:28:07.976Z,100292.53
2022-08-07T17:34:15.212Z,100363.13
2022-08-07T17:39:58.778Z,100382.88
2022-08-07T17:45:23.531Z,100381.19
2022-08-07T17:50:47.180Z,100353.19
2022-08-07T18:09:08.766Z,100328.72
2022-08-07T18:15:01.964Z,100355.09
2022-08-07T18:21:09.613Z,100276.16
2022-08-07T18:27:00.376Z,100308.94
2022-08-07T18:33:15.414Z,100326.44
2022-08-07T18:40:07.757Z,100316.50
2022-08-07T18:45:44.736Z,100301.13
2022-08-07T18:51:14.966Z,100291.44
2022-08-07T18:57:06.143Z,100310.28
2022-08-07T19:02:57.318Z,100307.31
2022-08-07T19:08:54.914Z,100308.81
2022-08-07T19:16:02.416Z,100335.38
2022-08-07T19:21:47.943Z,100303.28
2022-08-07T19:28:56.698Z,100341.66
2022-08-07T19:32:59.742Z,100337.06
2022-08-07T19:38:27.825Z,100331.50
2022-08-07T19:43:55.730Z,100259.09
2022-08-07T19:49:58.373Z,100323.19
2022-08-07T19:55:11.191Z,100291.75
2022-08-07T20:00:54.000Z,100261.94
2022-08-07T20:06:30.579Z,100258.22
2022-08-07T20:12:22.706Z,100279.72
2022-08-07T20:17:41.582Z,100248.78
2022-08-07T20:23:32.958Z,100289.56
2022-08-07T20:29:00.343Z,100313.47
2022-08-07T20:34:52.261Z,100295.03
2022-08-07T20:40:33.191Z,100273.31
2022-08-07T20:46:26.189Z,100349.22
2022-08-07T20:51:50.657Z,100307.78
2022-08-07T20:57:14.078Z,100353.00
2022-08-07T21:03:03.808Z,100348.91
2022-08-07T21:08:37.723Z,100312.56
2022-08-07T21:14:33.985Z,100331.50
2022-08-07T21:20:05.718Z,100347.63
2022-08-07T21:25:45.504Z,100332.38
2022-08-07T21:31:31.327Z,100360.63
2022-08-07T21:37:31.456Z,100369.03
2022-08-07T21:43:14.525Z,100369.13
2022-08-07T21:48:56.929Z,100378.94
2022-08-07T21:54:34.870Z,100376.31
2022-08-07T22:00:23.057Z,100375.38
2022-08-07T22:05:50.698Z,100399.31
2022-08-07T22:11:18.181Z,100399.03
2022-08-07T22:16:46.895Z,100403.09
2022-08-07T22:22:21.262Z,100380.84
2022-08-07T22:28:33.304Z,100425.50
2022-08-07T22:34:05.219Z,100422.34
2022-08-07T22:39:51.969Z,100430.53
2022-08-07T22:46:04.081Z,100419.38
2022-08-07T22:51:36.529Z,100422.09
2022-08-07T22:57:04.110Z,100424.84
2022-08-07T23:02:38.027Z,100435.44
2022-08-07T23:08:39.876Z,100430.78
2022-08-07T23:14:35.024Z,100424.59
2022-08-07T23:20:51.538Z,100415.91
2022-08-07T23:26:19.638Z,100391.50
2022-08-07T23:34:18.970Z,100416.13
2022-08-07T23:38:09.221Z,100418.06
2022-08-07T23:43:59.528Z,100406.88
2022-08-07T23:49:49.958Z,100410.19
2022-08-07T23:55:53.237Z,100391.00
